Portada
METAR-TAF:

METAR-TAF

Aeropuertos :

Georgetown, Isla Ascensión

Base Aérea de la Isla Ascensión

latitud: 07-58S, longitud: 014-24W, altitud: 86 m

Observación

El informe se hizo hace 3 horas y 40 minutos, a las 15:50 UTC
Viento 15 kt del sureste
Temperatura 27°C
Humedad 51%
Presión 1013 hPa
Visibilidad 10 km o más
Escasas nubes a una altura de 3000 ft

METAR: FHAW 171550Z 14015KT 9999 FEW030 27/16 Q1013 BLU NOSIG

Hora: 19:30 (19:30 UTC)

Pronóstico

El informe se hizo hace 3 horas y 0 minutos, a las 16:30 UTC
Pronóstico válido del 17 a las 18 UTC al 18 a las 12 UTC
Viento 15 kt del sureste
Visibilidad 10 km o más
Escasas nubes a una altura de 3000 ft
Nubes dispersas a una altura de 4500 ft
Probabilidad 30% :
Temporalmente
del 18 a las 03 UTC al 18 a las 12 UTC
Nubes dispersas a una altura de 2000 ft

TAF: FHAW 171630Z 1718/1812 14015KT 9999 FEW030 SCT045 PROB30 TEMPO 1803/1812 SCT020

Observaciones y pronósticos meteorológicos de más de 4000 aeropuertos (mensajes METAR y TAF).

Los puntos amarillos y rojos representan las estaciones disponibles.

Ponga el ratón en el punto deseado para ver el nombre de la estación.

Haga clic para ver las observaciones y los pronósticos meteorológicos.

Para cambiar el mapa : haga clic en los botones verdes con una cruz de color negro para hacer un zoom, en el botón verde con un guión para alejar o en las flechas verdes para mapas adyacentes.


METAR-TAF: